Time;durP1;ratioP1;P1;durP2;ratioP2;P2;SDS_P1;SDS_P2;PMS_P1;PMS_P2;Temp;Humidity;BMP_temperature;BMP_pressure;BME280_temperature;BME280_humidity;BME280_pressure;Samples;Min_cycle;Max_cycle;Signal;HPM_P1;HPM_P2
2023/05/20 00:00:12;;;;;;;;;4.75;4.75;;;;;20.11;38.62;101579.22;4977051;28;45281;-47
2023/05/20 00:02:38;;;;;;;;;6.25;6.25;;;;;20.08;38.93;101578.41;4977310;28;45652;-47
2023/05/20 00:05:03;;;;;;;;;5.00;5.00;;;;;20.11;39.18;101581.84;4976205;28;47016;-47
2023/05/20 00:07:29;;;;;;;;;5.00;5.00;;;;;20.11;39.13;101579.22;4976824;28;45369;-47
2023/05/20 00:09:54;;;;;;;;;6.00;6.00;;;;;20.08;39.14;101578.41;4976883;28;45225;-52
2023/05/20 00:12:19;;;;;;;;;8.00;7.00;;;;;20.10;38.89;101585.38;4976969;28;45361;-49
2023/05/20 00:14:45;;;;;;;;;6.00;6.00;;;;;20.10;39.15;101580.97;4976482;28;46149;-47
2023/05/20 00:17:10;;;;;;;;;10.50;6.25;;;;;20.09;39.29;101576.63;4976284;28;63771;-47
2023/05/20 00:19:35;;;;;;;;;7.67;7.67;;;;;20.08;38.69;101575.78;4976064;28;54940;-48
2023/05/20 00:22:01;;;;;;;;;5.00;5.00;;;;;20.07;39.16;101581.94;4975415;28;45369;-50
2023/05/20 00:24:26;;;;;;;;;9.00;6.00;;;;;20.08;39.19;101581.03;4976550;28;46154;-48
2023/05/20 00:26:52;;;;;;;;;7.75;6.00;;;;;20.09;39.21;101584.50;4976213;28;51354;-49
2023/05/20 00:29:18;;;;;;;;;5.00;5.00;;;;;20.10;39.12;101582.75;4976614;28;45367;-52
2023/05/20 00:31:44;;;;;;;;;6.00;6.00;;;;;20.10;38.75;101588.84;4980626;28;45567;-47
2023/05/20 00:34:09;;;;;;;;;6.25;6.25;;;;;20.08;38.92;101581.03;4976501;28;53788;-47
2023/05/20 00:36:35;;;;;;;;;7.00;7.00;;;;;20.09;38.97;101584.50;4980166;28;57613;-50
2023/05/20 00:39:00;;;;;;;;;8.75;5.25;;;;;20.08;39.20;101578.41;4993232;28;45415;-53
2023/05/20 00:41:26;;;;;;;;;6.50;6.00;;;;;20.09;38.76;101579.25;4985555;28;45172;-56
2023/05/20 00:43:55;;;;;;;;;5.00;5.00;;;;;20.08;38.66;101574.91;4981435;28;46311;-56
2023/05/20 00:46:25;;;;;;;;;8.00;7.00;;;;;20.07;39.01;101560.91;4981035;28;45407;-60
2023/05/20 00:48:51;;;;;;;;;5.00;5.00;;;;;20.08;39.34;101565.25;4993623;28;46035;-52
2023/05/20 00:51:16;;;;;;;;;6.00;5.00;;;;;20.09;39.10;101558.19;5007383;28;44707;-46
2023/05/20 00:53:42;;;;;;;;;5.00;5.00;;;;;20.09;39.12;101558.19;4990331;28;46070;-49
2023/05/20 00:56:08;;;;;;;;;9.00;7.75;;;;;20.08;38.76;101554.72;4979932;28;45430;-47
2023/05/20 00:58:35;;;;;;;;;6.00;6.00;;;;;20.08;38.89;101559.97;4979821;28;45230;-46
2023/05/20 01:01:01;;;;;;;;;6.75;6.00;;;;;20.07;38.80;101546.88;4979489;28;45305;-50
2023/05/20 01:03:28;;;;;;;;;6.00;6.00;;;;;20.08;39.39;101552.09;4979276;28;46103;-49
2023/05/20 01:05:53;;;;;;;;;7.25;7.00;;;;;20.05;39.44;101549.56;4979300;28;45416;-49
2023/05/20 01:08:18;;;;;;;;;6.50;5.75;;;;;20.08;39.20;101546.81;4979911;28;45302;-47
2023/05/20 01:10:48;;;;;;;;;8.50;6.75;;;;;20.07;39.22;101552.13;4982731;28;45456;-47
2023/05/20 01:13:19;;;;;;;;;6.00;5.25;;;;;20.08;39.23;101536.31;4987001;28;45330;-52
2023/05/20 01:15:47;;;;;;;;;8.00;6.00;;;;;20.07;38.80;101539.84;4997711;28;45317;-50
2023/05/20 01:18:17;;;;;;;;;5.00;5.00;;;;;20.08;39.30;101544.19;4988537;28;45230;-49
2023/05/20 01:20:46;;;;;;;;;6.00;6.00;;;;;20.08;38.92;101541.56;4979881;28;45436;-47
2023/05/20 01:23:11;;;;;;;;;6.00;6.00;;;;;20.06;39.17;101548.66;4981196;28;47166;-46
2023/05/20 01:25:37;;;;;;;;;5.50;5.25;;;;;20.08;39.06;101545.94;5001557;28;45355;-47
2023/05/20 01:28:03;;;;;;;;;6.00;6.00;;;;;20.07;38.83;101539.84;4988157;28;45167;-47
2023/05/20 01:30:34;;;;;;;;;8.00;6.00;;;;;20.07;39.37;101539.84;4979094;28;45298;-47
2023/05/20 01:33:08;;;;;;;;;6.00;6.00;;;;;20.06;39.53;101537.28;4978495;28;46087;-46
2023/05/20 01:35:34;;;;;;;;;5.00;5.00;;;;;20.07;38.80;101534.59;4978764;28;45441;-44
2023/05/20 01:38:01;;;;;;;;;7.25;6.25;;;;;20.08;38.91;101538.94;4978859;28;45308;-49
2023/05/20 01:40:27;;;;;;;;;6.00;6.00;;;;;20.08;39.05;101541.56;4979400;28;45499;-48
2023/05/20 01:42:54;;;;;;;;;5.25;5.25;;;;;20.07;39.41;101534.59;4978898;28;47199;-47
2023/05/20 01:45:20;;;;;;;;;5.75;5.75;;;;;20.07;39.21;101537.22;4979102;28;45816;-47
2023/05/20 01:47:45;;;;;;;;;5.75;5.00;;;;;20.08;39.32;101533.66;4979815;28;45329;-47
2023/05/20 01:50:11;;;;;;;;;5.25;5.25;;;;;20.07;38.98;101529.31;4988219;28;45654;-49
2023/05/20 01:52:36;;;;;;;;;4.00;4.00;;;;;20.08;39.35;101524.91;4996787;28;45313;-50
2023/05/20 01:55:01;;;;;;;;;5.75;5.75;;;;;20.05;38.99;101523.25;4999660;28;45281;-51
2023/05/20 01:57:27;;;;;;;;;6.00;6.00;;;;;20.07;39.40;101524.06;4993827;28;45363;-50
2023/05/20 01:59:52;;;;;;;;;5.25;4.50;;;;;20.07;38.96;101518.78;4996107;28;44898;-47
2023/05/20 02:02:17;;;;;;;;;8.25;7.25;;;;;20.07;39.41;101524.06;4983051;28;46125;-49
2023/05/20 02:04:47;;;;;;;;;5.00;5.00;;;;;20.06;39.29;101514.44;4979069;28;45407;-47
2023/05/20 02:07:13;;;;;;;;;5.25;5.25;;;;;20.06;39.33;101517.09;4978827;28;45658;-48
2023/05/20 02:09:39;;;;;;;;;5.00;5.00;;;;;20.06;39.18;101519.72;4978391;28;45263;-48
2023/05/20 02:12:05;;;;;;;;;5.00;5.00;;;;;20.05;39.39;101520.63;4978195;28;46883;-47
2023/05/20 02:14:31;;;;;;;;;8.00;6.00;;;;;20.07;39.25;101513.53;4978351;28;45442;-46
2023/05/20 02:16:56;;;;;;;;;4.33;4.33;;;;;20.04;38.98;101511.03;4980343;28;63521;-47
2023/05/20 02:19:22;;;;;;;;;6.00;5.00;;;;;20.06;39.15;101516.25;4993616;28;45463;-49
2023/05/20 02:21:48;;;;;;;;;4.25;4.25;;;;;20.06;39.42;101516.25;4977991;28;45911;-46
2023/05/20 02:24:13;;;;;;;;;3.75;3.25;;;;;20.06;39.06;101517.09;4978361;28;45266;-48
2023/05/20 02:26:38;;;;;;;;;4.75;4.00;;;;;20.06;39.50;101517.09;4978096;28;45337;-47
2023/05/20 02:29:04;;;;;;;;;6.00;3.00;;;;;20.05;39.62;101520.63;4978279;28;45414;-47
2023/05/20 02:31:30;;;;;;;;;5.75;5.50;;;;;20.05;39.12;101515.38;4979624;28;46271;-47
2023/05/20 02:33:55;;;;;;;;;6.25;5.00;;;;;20.06;39.17;101516.25;4979314;28;55545;-47
2023/05/20 02:36:20;;;;;;;;;6.00;4.50;;;;;20.06;39.07;101522.34;4997533;28;45294;-47
2023/05/20 02:38:46;;;;;;;;;6.25;5.00;;;;;20.06;39.33;101517.09;4981380;28;56660;-47
2023/05/20 02:41:11;;;;;;;;;6.00;5.00;;;;;20.04;39.28;101505.75;4977631;28;45229;-49
2023/05/20 02:43:36;;;;;;;;;4.00;3.25;;;;;20.05;39.20;101507.47;4978060;28;45290;-46
2023/05/20 02:46:02;;;;;;;;;4.50;4.00;;;;;20.06;39.38;101510.97;4977532;28;45214;-49
2023/05/20 02:48:28;;;;;;;;;5.00;5.00;;;;;20.05;39.35;101506.63;4978040;28;45333;-47
2023/05/20 02:50:53;;;;;;;;;7.75;4.25;;;;;20.04;38.99;101497.88;4977953;28;45342;-48
2023/05/20 02:53:18;;;;;;;;;4.50;4.50;;;;;20.03;39.57;101503.22;4978315;28;45330;-57
2023/05/20 02:55:46;;;;;;;;;6.00;6.00;;;;;20.06;39.01;101506.56;4977878;28;45880;-52
2023/05/20 02:58:12;;;;;;;;;6.25;5.25;;;;;20.04;39.10;101500.50;4977896;28;45301;-47
2023/05/20 03:00:39;;;;;;;;;6.50;5.00;;;;;20.05;39.55;101502.22;4977737;28;46493;-48
2023/05/20 03:03:06;;;;;;;;;6.00;5.00;;;;;20.03;39.56;101496.16;4978177;28;45905;-50
2023/05/20 03:05:32;;;;;;;;;4.25;4.25;;;;;20.06;39.14;101500.44;4978496;28;45224;-47
2023/05/20 03:07:57;;;;;;;;;5.00;5.00;;;;;20.04;39.63;101497.88;4981329;28;45215;-46
2023/05/20 03:10:22;;;;;;;;;6.00;4.50;;;;;20.05;39.65;101496.94;4989154;28;46010;-56
2023/05/20 03:12:48;;;;;;;;;3.00;3.00;;;;;20.05;39.08;101496.94;4979871;28;45199;-60
2023/05/20 03:15:13;;;;;;;;;6.25;6.25;;;;;20.04;39.49;101492.59;4977723;28;45594;-55
2023/05/20 03:17:38;;;;;;;;;6.00;6.00;;;;;20.05;39.62;101496.94;4984237;28;45547;-49
2023/05/20 03:20:06;;;;;;;;;7.67;6.67;;;;;20.05;39.11;101496.09;4990838;28;61071;-48
2023/05/20 03:22:31;;;;;;;;;6.75;5.00;;;;;20.05;39.61;101494.31;4996931;28;45829;-48
2023/05/20 03:24:57;;;;;;;;;7.00;5.50;;;;;20.04;39.50;101487.34;4983619;28;45392;-49
2023/05/20 03:27:25;;;;;;;;;4.00;4.00;;;;;20.05;39.22;101493.47;4986459;28;45392;-49
2023/05/20 03:29:53;;;;;;;;;6.00;5.00;;;;;20.05;39.08;101491.69;4984559;28;46174;-50
2023/05/20 03:32:19;;;;;;;;;5.00;5.00;;;;;20.05;39.22;101485.59;4983575;28;45249;-55
2023/05/20 03:34:44;;;;;;;;;5.00;5.00;;;;;20.04;39.43;101476.81;4984855;28;45167;-50
2023/05/20 03:37:10;;;;;;;;;5.25;4.00;;;;;20.03;39.42;101475.09;4978364;28;45428;-48
2023/05/20 03:39:35;;;;;;;;;6.00;4.25;;;;;20.05;39.35;101478.53;4978585;28;46177;-46
2023/05/20 03:42:00;;;;;;;;;4.00;4.00;;;;;20.03;39.16;101471.63;4983299;28;66904;-52
2023/05/20 03:44:25;;;;;;;;;7.33;6.00;;;;;20.05;39.60;101475.91;4989547;28;62118;-46
2023/05/20 03:46:51;;;;;;;;;5.25;5.00;;;;;19.99;39.68;101468.28;4988351;28;45440;-50
2023/05/20 03:49:16;;;;;;;;;7.50;5.50;;;;;20.04;39.19;101474.19;4976209;28;61304;-48
2023/05/20 03:51:41;;;;;;;;;4.00;4.00;;;;;20.04;39.63;101468.91;4976413;28;59645;-52
2023/05/20 03:54:07;;;;;;;;;8.00;5.25;;;;;20.04;39.63;101470.72;4976806;28;45351;-48
2023/05/20 03:56:32;;;;;;;;;8.00;4.67;;;;;20.04;39.35;101471.56;4990643;28;53613;-51
2023/05/20 03:58:57;;;;;;;;;5.00;5.00;;;;;20.03;39.14;101464.56;4984607;28;47336;-54
2023/05/20 04:01:24;;;;;;;;;3.00;3.00;;;;;20.04;39.22;101468.09;4981073;28;45432;-49
2023/05/20 04:03:50;;;;;;;;;6.50;5.50;;;;;20.04;39.48;101471.56;4995856;28;45335;-47
2023/05/20 04:06:15;;;;;;;;;4.25;4.25;;;;;20.03;39.49;101469.84;4996471;28;44897;-51
2023/05/20 04:08:41;;;;;;;;;5.00;5.00;;;;;20.03;39.48;101467.22;4995767;28;45207;-52
2023/05/20 04:11:06;;;;;;;;;5.75;5.75;;;;;20.04;39.06;101473.34;4998595;28;45348;-47
2023/05/20 04:13:32;;;;;;;;;7.75;5.00;;;;;20.02;39.47;101462.88;4980772;28;45274;-46
2023/05/20 04:15:57;;;;;;;;;4.25;4.25;;;;;20.03;39.14;101459.31;4979677;28;45547;-46
2023/05/20 04:18:22;;;;;;;;;6.50;4.75;;;;;20.03;39.44;101456.69;4983922;28;45998;-47
2023/05/20 04:20:48;;;;;;;;;4.67;4.67;;;;;20.02;39.53;101460.22;4985208;28;65322;-46
2023/05/20 04:23:14;;;;;;;;;5.00;3.00;;;;;20.03;39.43;101455.84;4978816;28;45396;-54
2023/05/20 04:25:40;;;;;;;;;5.00;5.00;;;;;20.04;39.60;101468.09;4979996;28;45353;-54
2023/05/20 04:28:06;;;;;;;;;5.75;4.00;;;;;20.04;39.77;101465.44;4979625;28;46410;-54
2023/05/20 04:30:32;;;;;;;;;7.50;5.00;;;;;20.04;39.19;101466.28;4979593;28;45400;-49
2023/05/20 04:32:57;;;;;;;;;4.50;4.50;;;;;20.02;39.70;101462.03;4979913;28;45358;-56
2023/05/20 04:35:24;;;;;;;;;4.50;4.50;;;;;20.03;39.80;101459.31;4980465;28;45703;-48
2023/05/20 04:37:52;;;;;;;;;4.00;4.00;;;;;20.03;39.44;101459.31;4979780;28;45433;-54
2023/05/20 04:40:18;;;;;;;;;4.00;4.00;;;;;20.02;39.10;101454.97;4979942;28;45346;-56
2023/05/20 04:42:43;;;;;;;;;4.00;4.00;;;;;20.04;39.43;101463.66;4979492;28;60442;-51
2023/05/20 04:45:09;;;;;;;;;3.75;3.75;;;;;20.03;39.66;101463.75;4982551;28;45531;-51
2023/05/20 04:47:37;;;;;;;;;5.00;5.00;;;;;20.04;39.21;101460.19;4982534;28;46871;-49
2023/05/20 04:50:09;;;;;;;;;5.00;3.50;;;;;20.04;39.45;101458.41;4979448;28;45311;-46
2023/05/20 04:52:34;;;;;;;;;4.25;3.00;;;;;20.03;39.27;101461.94;4979623;28;45317;-48
2023/05/20 04:55:00;;;;;;;;;4.75;4.00;;;;;20.04;39.83;101457.56;4979777;28;45673;-46
2023/05/20 04:57:26;;;;;;;;;4.50;4.50;;;;;20.03;39.67;101458.47;4981384;28;46422;-49
2023/05/20 04:59:51;;;;;;;;;3.75;3.50;;;;;20.04;39.33;101460.19;4989594;28;45391;-46
2023/05/20 05:02:16;;;;;;;;;6.00;4.00;;;;;20.03;39.82;101451.41;4987963;28;59378;-46
2023/05/20 05:04:42;;;;;;;;;4.33;4.00;;;;;20.04;39.69;101455.75;4982669;28;58860;-48
2023/05/20 05:07:07;;;;;;;;;6.25;4.00;;;;;20.02;39.81;101452.34;4981607;28;45465;-46
2023/05/20 05:09:32;;;;;;;;;8.67;4.00;;;;;20.03;39.23;101450.59;4990846;28;59282;-46
2023/05/20 05:11:57;;;;;;;;;4.00;3.75;;;;;20.03;39.20;101453.22;5003141;28;44705;-47
2023/05/20 05:14:23;;;;;;;;;7.25;4.50;;;;;20.02;39.58;101452.34;4989032;28;50216;-46
2023/05/20 05:16:48;;;;;;;;;5.67;4.00;;;;;20.03;39.50;101447.94;4996397;28;69121;-48
2023/05/20 05:19:14;;;;;;;;;5.00;5.00;;;;;20.03;39.75;101448.78;4983856;28;45481;-47
2023/05/20 05:21:39;;;;;;;;;4.25;4.00;;;;;20.04;39.70;101449.66;4979136;28;45338;-53
2023/05/20 05:24:05;;;;;;;;;5.00;5.00;;;;;20.03;39.32;101448.78;4979196;28;45638;-53
2023/05/20 05:26:30;;;;;;;;;5.25;4.00;;;;;20.04;39.52;101450.50;4978010;28;45328;-47
2023/05/20 05:28:56;;;;;;;;;4.75;4.75;;;;;20.04;39.73;101450.50;4978778;28;45242;-48
2023/05/20 05:31:21;;;;;;;;;6.00;5.00;;;;;20.04;39.79;101447.88;4979255;28;45303;-46
2023/05/20 05:33:46;;;;;;;;;5.00;5.00;;;;;20.02;39.33;101444.44;4979217;28;45376;-47
2023/05/20 05:36:12;;;;;;;;;3.33;3.33;;;;;20.04;39.69;101445.25;4978407;28;59962;-47
2023/05/20 05:38:37;;;;;;;;;4.75;4.00;;;;;19.99;39.39;101446.34;4997863;28;45177;-48
2023/05/20 05:41:02;;;;;;;;;4.50;4.00;;;;;20.04;39.65;101457.56;4987437;28;45164;-59
2023/05/20 05:43:28;;;;;;;;;6.75;6.75;;;;;20.04;39.99;101449.66;4979614;28;45313;-50
2023/05/20 05:45:53;;;;;;;;;5.75;4.00;;;;;20.02;39.90;101449.72;4979502;28;47047;-60
2023/05/20 05:48:18;;;;;;;;;5.00;5.00;;;;;20.02;39.24;101448.88;4987795;28;45241;-58
2023/05/20 05:50:45;;;;;;;;;4.75;4.75;;;;;20.04;39.58;101455.75;5002303;28;45218;-48
2023/05/20 05:53:10;;;;;;;;;4.50;4.50;;;;;20.03;39.56;101451.41;4998221;28;45282;-46
2023/05/20 05:55:36;;;;;;;;;4.50;4.50;;;;;20.05;39.75;101451.38;4983129;28;46671;-46
2023/05/20 05:58:01;;;;;;;;;5.50;5.50;;;;;20.04;39.59;101445.25;4989242;28;45365;-46
2023/05/20 06:00:26;;;;;;;;;3.75;3.75;;;;;20.03;39.64;101446.16;4997630;28;45293;-47
2023/05/20 06:02:52;;;;;;;;;4.50;4.50;;;;;20.04;39.49;101450.50;4999746;28;45409;-47
2023/05/20 06:05:17;;;;;;;;;5.50;5.50;;;;;20.05;39.67;101444.31;4996066;28;45308;-47
2023/05/20 06:07:43;;;;;;;;;4.00;4.00;;;;;20.06;39.60;101446.03;4989026;28;45374;-46
2023/05/20 06:10:08;;;;;;;;;4.33;4.00;;;;;20.05;39.90;101435.59;4979305;28;65710;-46
2023/05/20 06:12:34;;;;;;;;;6.50;4.00;;;;;20.05;39.55;101440.84;4982231;28;45359;-46
2023/05/20 06:14:59;;;;;;;;;4.25;3.00;;;;;20.05;39.36;101440.84;4987993;28;46369;-46
2023/05/20 06:17:25;;;;;;;;;5.25;4.25;;;;;20.04;39.74;101439.97;4990011;28;45480;-49
2023/05/20 06:19:50;;;;;;;;;4.25;4.25;;;;;20.07;39.65;101441.59;4984522;28;45418;-46
2023/05/20 06:22:15;;;;;;;;;5.00;5.00;;;;;20.04;39.40;101434.72;4995720;28;53822;-46
2023/05/20 06:24:40;;;;;;;;;5.67;5.33;;;;;20.04;39.45;101437.34;4995484;28;55607;-48
2023/05/20 06:27:06;;;;;;;;;4.75;4.25;;;;;20.06;39.49;101442.56;4995392;28;45206;-46
2023/05/20 06:29:31;;;;;;;;;4.00;4.00;;;;;20.05;40.01;101436.44;4986123;28;64642;-46
2023/05/20 06:31:56;;;;;;;;;4.67;4.67;;;;;20.05;39.56;101444.31;4979471;28;54656;-46
2023/05/20 06:34:21;;;;;;;;;5.25;4.50;;;;;20.06;39.40;101432.88;4980093;28;47003;-47
2023/05/20 06:36:47;;;;;;;;;3.00;3.00;;;;;20.06;39.96;101426.78;4989314;28;56871;-46
2023/05/20 06:39:12;;;;;;;;;5.00;5.00;;;;;20.07;39.58;101429.31;4987086;28;53917;-46
2023/05/20 06:41:38;;;;;;;;;5.00;5.00;;;;;20.05;39.72;101418.00;4978702;28;45533;-53
2023/05/20 06:44:05;;;;;;;;;4.50;3.50;;;;;20.07;39.41;101425.81;4978584;28;45342;-48
2023/05/20 06:46:30;;;;;;;;;4.00;4.00;;;;;20.07;39.48;101421.44;4977789;28;45397;-46
2023/05/20 06:48:56;;;;;;;;;7.25;7.00;;;;;20.06;39.88;101414.47;4978958;28;45363;-51
2023/05/20 06:51:21;;;;;;;;;4.67;3.00;;;;;20.08;39.48;101424.91;4978302;28;49960;-46
2023/05/20 06:53:46;;;;;;;;;4.67;3.67;;;;;20.09;39.40;101416.09;4977723;28;60034;-46
2023/05/20 06:56:12;;;;;;;;;4.00;4.00;;;;;20.07;39.81;101408.28;4978541;28;45442;-46
2023/05/20 06:58:37;;;;;;;;;3.00;3.00;;;;;20.09;39.67;101418.72;4979038;28;45304;-47
2023/05/20 07:01:02;;;;;;;;;4.00;4.00;;;;;20.11;39.85;101418.69;4983015;28;45524;-47
2023/05/20 07:03:28;;;;;;;;;4.75;4.75;;;;;20.11;39.92;101421.31;4992822;28;46497;-52
2023/05/20 07:05:53;;;;;;;;;5.75;5.00;;;;;20.12;39.32;101426.50;4987382;28;45353;-50
2023/05/20 07:08:18;;;;;;;;;4.50;4.00;;;;;20.13;39.92;101422.06;4978345;28;45339;-47
2023/05/20 07:10:45;;;;;;;;;5.33;5.33;;;;;20.13;39.42;101424.69;4978224;28;49256;-46
2023/05/20 07:13:11;;;;;;;;;4.75;4.00;;;;;20.15;39.44;101428.13;4977734;28;46201;-50
2023/05/20 07:15:36;;;;;;;;;6.00;4.00;;;;;20.14;39.88;101424.66;4983718;28;45437;-47
2023/05/20 07:18:01;;;;;;;;;5.00;3.25;;;;;20.14;39.68;101421.16;4997775;28;45294;-52
2023/05/20 07:20:26;;;;;;;;;4.00;4.00;;;;;20.16;39.94;101414.03;4997539;28;44819;-48
2023/05/20 07:22:52;;;;;;;;;5.00;4.00;;;;;20.17;39.65;101413.13;4993841;28;52010;-46
2023/05/20 07:25:17;;;;;;;;;4.50;4.50;;;;;20.18;39.72;101414.84;4980170;28;45251;-50
2023/05/20 07:27:42;;;;;;;;;5.00;4.75;;;;;20.17;39.77;101413.13;4983062;28;45300;-49
2023/05/20 07:30:08;;;;;;;;;4.75;4.75;;;;;20.19;39.45;101420.03;4988513;28;45219;-47
2023/05/20 07:32:34;;;;;;;;;8.00;4.75;;;;;20.20;39.87;101418.25;4979726;28;46013;-46
2023/05/20 07:34:59;;;;;;;;;5.50;4.25;;;;;20.20;39.66;101408.56;4985145;28;45230;-50
2023/05/20 07:37:24;;;;;;;;;5.00;4.00;;;;;20.22;39.52;101414.63;4991383;28;45337;-54
2023/05/20 07:39:50;;;;;;;;;4.50;3.00;;;;;20.24;39.93;101409.28;4981608;28;45593;-56
2023/05/20 07:42:15;;;;;;;;;5.00;4.00;;;;;20.24;39.50;101401.38;4978782;28;48498;-50
2023/05/20 07:44:40;;;;;;;;;4.00;4.00;;;;;20.24;39.36;101401.38;4977210;28;45456;-49
2023/05/20 07:47:06;;;;;;;;;5.00;5.00;;;;;20.24;39.69;101399.63;4978725;28;45306;-50
2023/05/20 07:49:31;;;;;;;;;4.00;4.00;;;;;20.28;39.55;101400.34;4975887;28;48789;-47
2023/05/20 07:51:56;;;;;;;;;4.00;4.00;;;;;20.30;39.55;101397.63;4980958;28;45364;-46
2023/05/20 07:54:22;;;;;;;;;5.00;5.00;;;;;20.31;39.94;101394.06;4985444;28;45409;-47
2023/05/20 07:56:47;;;;;;;;;4.25;4.00;;;;;20.32;39.87;101391.38;4996606;28;45377;-57
2023/05/20 07:59:13;;;;;;;;;2.00;2.00;;;;;20.33;39.39;101382.56;4986726;28;45376;-59
2023/05/20 08:01:40;;;;;;;;;3.00;3.00;;;;;20.34;39.40;101381.63;4980702;28;45409;-51
2023/05/20 08:04:06;;;;;;;;;5.25;4.75;;;;;20.34;39.86;101386.88;4980442;28;45745;-58
2023/05/20 08:06:31;;;;;;;;;7.00;5.00;;;;;20.35;39.60;101380.69;4980494;28;45255;-59
2023/05/20 08:08:57;;;;;;;;;4.75;4.00;;;;;20.36;39.72;101390.31;4980592;28;45531;-56
2023/05/20 08:11:23;;;;;;;;;6.00;5.00;;;;;20.37;39.22;101383.28;4980193;28;46959;-56
2023/05/20 08:13:48;;;;;;;;;5.50;4.25;;;;;20.37;39.76;101386.75;4980465;28;45326;-52
2023/05/20 08:16:14;;;;;;;;;4.00;4.00;;;;;20.38;39.32;101375.28;4980774;28;45274;-59
2023/05/20 08:18:39;;;;;;;;;6.00;4.00;;;;;20.39;39.64;101366.47;4993987;28;45226;-47
2023/05/20 08:21:08;;;;;;;;;5.00;5.00;;;;;20.41;39.37;101365.56;5004821;28;51241;-47
2023/05/20 08:23:34;;;;;;;;;5.50;5.50;;;;;20.42;39.70;101372.53;4988102;28;45838;-49
2023/05/20 08:26:01;;;;;;;;;4.25;4.25;;;;;20.42;39.28;101373.38;4979853;28;45377;-46
2023/05/20 08:28:27;;;;;;;;;5.25;4.00;;;;;20.43;39.50;101372.44;4980275;28;45231;-47
2023/05/20 08:30:52;;;;;;;;;3.00;3.00;;;;;20.44;39.80;101362.78;4978660;28;47118;-50
2023/05/20 08:33:18;;;;;;;;;4.00;4.00;;;;;20.44;39.63;101362.78;4979970;28;45195;-49
